sensor_id;sensor_type;location;lat;lon;timestamp;P1;durP1;ratioP1;P2;durP2;ratioP2
16579;SDS011;8402;51.466;6.806;2023-04-01T00:02:20;4.67;;;2.43;;
16579;SDS011;8402;51.466;6.806;2023-04-01T00:04:50;8.57;;;2.40;;
16579;SDS011;8402;51.466;6.806;2023-04-01T00:07:20;5.20;;;2.00;;
16579;SDS011;8402;51.466;6.806;2023-04-01T00:09:56;6.77;;;2.30;;
16579;SDS011;8402;51.466;6.806;2023-04-01T00:12:26;7.20;;;1.80;;
16579;SDS011;8402;51.466;6.806;2023-04-01T00:14:56;3.30;;;1.50;;
16579;SDS011;8402;51.466;6.806;2023-04-01T00:17:28;6.53;;;1.90;;
16579;SDS011;8402;51.466;6.806;2023-04-01T00:19:58;3.97;;;1.10;;
16579;SDS011;8402;51.466;6.806;2023-04-01T00:22:29;3.80;;;1.07;;
16579;SDS011;8402;51.466;6.806;2023-04-01T00:24:59;4.37;;;1.00;;
16579;SDS011;8402;51.466;6.806;2023-04-01T00:27:29;6.90;;;1.07;;
16579;SDS011;8402;51.466;6.806;2023-04-01T00:29:59;3.17;;;1.00;;
16579;SDS011;8402;51.466;6.806;2023-04-01T00:32:32;2.90;;;0.57;;
16579;SDS011;8402;51.466;6.806;2023-04-01T00:35:02;1.90;;;0.73;;
16579;SDS011;8402;51.466;6.806;2023-04-01T00:37:34;2.27;;;0.97;;
16579;SDS011;8402;51.466;6.806;2023-04-01T00:40:06;3.80;;;1.17;;
16579;SDS011;8402;51.466;6.806;2023-04-01T00:42:50;4.10;;;1.40;;
16579;SDS011;8402;51.466;6.806;2023-04-01T00:45:31;4.53;;;1.40;;
16579;SDS011;8402;51.466;6.806;2023-04-01T00:48:07;3.00;;;1.40;;
16579;SDS011;8402;51.466;6.806;2023-04-01T00:50:40;3.43;;;1.20;;
16579;SDS011;8402;51.466;6.806;2023-04-01T00:53:13;2.90;;;1.27;;
16579;SDS011;8402;51.466;6.806;2023-04-01T00:55:46;1.70;;;1.03;;
16579;SDS011;8402;51.466;6.806;2023-04-01T00:58:21;5.70;;;2.03;;
16579;SDS011;8402;51.466;6.806;2023-04-01T01:00:55;7.03;;;2.30;;
16579;SDS011;8402;51.466;6.806;2023-04-01T01:03:32;7.63;;;2.50;;
16579;SDS011;8402;51.466;6.806;2023-04-01T01:06:10;4.27;;;2.40;;
16579;SDS011;8402;51.466;6.806;2023-04-01T01:08:56;3.03;;;2.00;;
16579;SDS011;8402;51.466;6.806;2023-04-01T01:11:38;5.43;;;1.90;;
16579;SDS011;8402;51.466;6.806;2023-04-01T01:14:15;5.90;;;2.00;;
16579;SDS011;8402;51.466;6.806;2023-04-01T01:16:54;6.03;;;1.53;;
16579;SDS011;8402;51.466;6.806;2023-04-01T01:22:52;2.40;;;1.23;;
16579;SDS011;8402;51.466;6.806;2023-04-01T01:25:40;2.40;;;1.30;;
16579;SDS011;8402;51.466;6.806;2023-04-01T01:28:23;4.07;;;1.40;;
16579;SDS011;8402;51.466;6.806;2023-04-01T01:31:07;4.60;;;1.47;;
16579;SDS011;8402;51.466;6.806;2023-04-01T01:33:51;4.80;;;1.03;;
16579;SDS011;8402;51.466;6.806;2023-04-01T01:36:34;2.87;;;1.07;;
16579;SDS011;8402;51.466;6.806;2023-04-01T01:39:05;3.30;;;1.10;;
16579;SDS011;8402;51.466;6.806;2023-04-01T01:41:38;3.00;;;1.20;;
16579;SDS011;8402;51.466;6.806;2023-04-01T01:44:11;3.00;;;1.00;;
16579;SDS011;8402;51.466;6.806;2023-04-01T01:46:43;4.33;;;1.43;;
16579;SDS011;8402;51.466;6.806;2023-04-01T01:49:15;3.23;;;0.97;;
16579;SDS011;8402;51.466;6.806;2023-04-01T01:51:50;2.93;;;1.13;;
16579;SDS011;8402;51.466;6.806;2023-04-01T01:54:20;3.60;;;1.57;;
16579;SDS011;8402;51.466;6.806;2023-04-01T01:56:50;6.27;;;0.93;;
16579;SDS011;8402;51.466;6.806;2023-04-01T01:59:24;4.83;;;1.40;;
16579;SDS011;8402;51.466;6.806;2023-04-01T02:01:55;2.80;;;1.03;;
16579;SDS011;8402;51.466;6.806;2023-04-01T02:04:26;2.40;;;0.67;;
16579;SDS011;8402;51.466;6.806;2023-04-01T02:07:01;1.90;;;0.70;;
16579;SDS011;8402;51.466;6.806;2023-04-01T02:09:35;11.33;;;0.93;;
16579;SDS011;8402;51.466;6.806;2023-04-01T02:12:05;2.83;;;1.10;;
16579;SDS011;8402;51.466;6.806;2023-04-01T02:14:38;2.33;;;0.90;;
16579;SDS011;8402;51.466;6.806;2023-04-01T02:17:13;7.30;;;1.10;;
16579;SDS011;8402;51.466;6.806;2023-04-01T02:19:47;1.33;;;0.53;;
16579;SDS011;8402;51.466;6.806;2023-04-01T02:22:23;2.37;;;0.70;;
16579;SDS011;8402;51.466;6.806;2023-04-01T02:24:57;3.03;;;0.63;;
16579;SDS011;8402;51.466;6.806;2023-04-01T02:27:29;2.53;;;0.70;;
16579;SDS011;8402;51.466;6.806;2023-04-01T02:30:00;2.20;;;0.70;;
16579;SDS011;8402;51.466;6.806;2023-04-01T02:32:30;2.67;;;0.67;;
16579;SDS011;8402;51.466;6.806;2023-04-01T02:35:07;2.40;;;0.80;;
16579;SDS011;8402;51.466;6.806;2023-04-01T02:37:41;1.90;;;0.93;;
16579;SDS011;8402;51.466;6.806;2023-04-01T02:40:13;2.47;;;1.00;;
16579;SDS011;8402;51.466;6.806;2023-04-01T02:42:44;3.03;;;1.17;;
16579;SDS011;8402;51.466;6.806;2023-04-01T02:45:14;4.60;;;1.07;;
16579;SDS011;8402;51.466;6.806;2023-04-01T02:47:44;6.83;;;0.80;;
16579;SDS011;8402;51.466;6.806;2023-04-01T02:50:14;6.00;;;1.30;;
16579;SDS011;8402;51.466;6.806;2023-04-01T02:52:47;6.07;;;1.13;;
16579;SDS011;8402;51.466;6.806;2023-04-01T02:55:17;3.33;;;1.00;;
16579;SDS011;8402;51.466;6.806;2023-04-01T02:57:47;4.53;;;1.00;;
16579;SDS011;8402;51.466;6.806;2023-04-01T03:00:17;3.13;;;0.90;;
16579;SDS011;8402;51.466;6.806;2023-04-01T03:02:47;1.63;;;0.87;;
16579;SDS011;8402;51.466;6.806;2023-04-01T03:05:18;4.50;;;1.03;;
16579;SDS011;8402;51.466;6.806;2023-04-01T03:07:50;3.13;;;1.00;;
16579;SDS011;8402;51.466;6.806;2023-04-01T03:10:20;2.90;;;1.10;;
16579;SDS011;8402;51.466;6.806;2023-04-01T03:12:50;6.07;;;1.50;;
16579;SDS011;8402;51.466;6.806;2023-04-01T03:15:20;4.23;;;1.93;;
16579;SDS011;8402;51.466;6.806;2023-04-01T03:17:50;6.20;;;2.33;;
16579;SDS011;8402;51.466;6.806;2023-04-01T03:20:20;7.53;;;2.60;;
16579;SDS011;8402;51.466;6.806;2023-04-01T03:22:53;4.33;;;2.20;;
16579;SDS011;8402;51.466;6.806;2023-04-01T03:25:23;8.00;;;3.03;;
16579;SDS011;8402;51.466;6.806;2023-04-01T03:27:53;6.83;;;2.60;;
16579;SDS011;8402;51.466;6.806;2023-04-01T03:30:26;8.23;;;2.73;;
16579;SDS011;8402;51.466;6.806;2023-04-01T03:32:57;8.07;;;3.03;;
16579;SDS011;8402;51.466;6.806;2023-04-01T03:35:27;11.10;;;3.33;;
16579;SDS011;8402;51.466;6.806;2023-04-01T03:38:00;6.97;;;3.00;;
16579;SDS011;8402;51.466;6.806;2023-04-01T03:40:30;7.07;;;2.93;;
16579;SDS011;8402;51.466;6.806;2023-04-01T03:43:03;5.23;;;2.50;;
16579;SDS011;8402;51.466;6.806;2023-04-01T03:45:34;5.63;;;2.23;;
16579;SDS011;8402;51.466;6.806;2023-04-01T03:48:04;5.20;;;2.43;;
16579;SDS011;8402;51.466;6.806;2023-04-01T03:50:34;8.40;;;2.53;;
16579;SDS011;8402;51.466;6.806;2023-04-01T03:53:07;5.00;;;2.10;;
16579;SDS011;8402;51.466;6.806;2023-04-01T03:55:37;5.43;;;2.33;;
16579;SDS011;8402;51.466;6.806;2023-04-01T03:58:08;4.80;;;1.90;;
16579;SDS011;8402;51.466;6.806;2023-04-01T04:00:38;6.53;;;2.47;;
16579;SDS011;8402;51.466;6.806;2023-04-01T04:03:08;8.70;;;2.40;;
16579;SDS011;8402;51.466;6.806;2023-04-01T04:05:40;6.23;;;2.30;;
16579;SDS011;8402;51.466;6.806;2023-04-01T04:08:18;5.13;;;1.97;;
16579;SDS011;8402;51.466;6.806;2023-04-01T04:10:54;4.87;;;1.90;;
16579;SDS011;8402;51.466;6.806;2023-04-01T04:13:24;6.63;;;1.70;;
16579;SDS011;8402;51.466;6.806;2023-04-01T04:15:54;7.40;;;1.97;;
16579;SDS011;8402;51.466;6.806;2023-04-01T04:18:24;4.03;;;1.47;;
16579;SDS011;8402;51.466;6.806;2023-04-01T04:20:54;4.90;;;1.70;;
16579;SDS011;8402;51.466;6.806;2023-04-01T04:23:27;3.47;;;1.40;;
16579;SDS011;8402;51.466;6.806;2023-04-01T04:26:00;3.90;;;1.50;;
16579;SDS011;8402;51.466;6.806;2023-04-01T04:28:32;3.00;;;1.33;;
16579;SDS011;8402;51.466;6.806;2023-04-01T04:31:03;5.40;;;1.67;;
16579;SDS011;8402;51.466;6.806;2023-04-01T04:33:34;4.17;;;1.60;;
16579;SDS011;8402;51.466;6.806;2023-04-01T04:36:05;3.43;;;1.60;;
16579;SDS011;8402;51.466;6.806;2023-04-01T04:38:38;6.93;;;1.90;;
16579;SDS011;8402;51.466;6.806;2023-04-01T04:41:08;5.17;;;2.03;;
16579;SDS011;8402;51.466;6.806;2023-04-01T04:43:40;5.40;;;1.93;;
16579;SDS011;8402;51.466;6.806;2023-04-01T04:46:10;5.33;;;2.00;;
16579;SDS011;8402;51.466;6.806;2023-04-01T04:48:41;3.83;;;1.70;;
16579;SDS011;8402;51.466;6.806;2023-04-01T04:51:12;5.33;;;1.87;;
16579;SDS011;8402;51.466;6.806;2023-04-01T04:53:47;4.03;;;1.87;;
16579;SDS011;8402;51.466;6.806;2023-04-01T04:56:18;4.70;;;1.53;;
16579;SDS011;8402;51.466;6.806;2023-04-01T04:58:49;3.30;;;1.73;;
16579;SDS011;8402;51.466;6.806;2023-04-01T05:01:19;5.17;;;1.83;;
16579;SDS011;8402;51.466;6.806;2023-04-01T05:03:49;4.97;;;2.30;;
16579;SDS011;8402;51.466;6.806;2023-04-01T05:06:19;5.77;;;1.60;;
16579;SDS011;8402;51.466;6.806;2023-04-01T05:08:52;5.37;;;2.07;;
16579;SDS011;8402;51.466;6.806;2023-04-01T05:11:22;5.27;;;2.70;;
16579;SDS011;8402;51.466;6.806;2023-04-01T05:13:52;4.83;;;2.67;;
16579;SDS011;8402;51.466;6.806;2023-04-01T05:16:22;11.20;;;2.50;;
16579;SDS011;8402;51.466;6.806;2023-04-01T05:18:52;3.83;;;2.27;;
16579;SDS011;8402;51.466;6.806;2023-04-01T05:21:22;4.27;;;2.50;;
16579;SDS011;8402;51.466;6.806;2023-04-01T05:23:55;6.03;;;2.80;;
16579;SDS011;8402;51.466;6.806;2023-04-01T05:26:24;3.97;;;2.43;;
16579;SDS011;8402;51.466;6.806;2023-04-01T05:28:54;5.60;;;2.67;;
16579;SDS011;8402;51.466;6.806;2023-04-01T05:31:24;3.57;;;2.10;;
16579;SDS011;8402;51.466;6.806;2023-04-01T05:33:54;3.17;;;2.00;;
16579;SDS011;8402;51.466;6.806;2023-04-01T05:36:24;5.67;;;2.50;;
16579;SDS011;8402;51.466;6.806;2023-04-01T05:38:57;5.60;;;2.80;;
16579;SDS011;8402;51.466;6.806;2023-04-01T05:41:27;8.70;;;3.10;;
16579;SDS011;8402;51.466;6.806;2023-04-01T05:43:57;7.40;;;2.60;;
16579;SDS011;8402;51.466;6.806;2023-04-01T05:46:27;5.50;;;2.60;;
16579;SDS011;8402;51.466;6.806;2023-04-01T05:48:57;6.73;;;2.93;;
16579;SDS011;8402;51.466;6.806;2023-04-01T05:51:29;5.87;;;3.20;;
16579;SDS011;8402;51.466;6.806;2023-04-01T05:54:01;8.37;;;3.60;;
16579;SDS011;8402;51.466;6.806;2023-04-01T05:56:33;7.57;;;3.80;;
16579;SDS011;8402;51.466;6.806;2023-04-01T05:59:03;8.57;;;4.33;;
16579;SDS011;8402;51.466;6.806;2023-04-01T06:01:33;8.87;;;3.60;;
16579;SDS011;8402;51.466;6.806;2023-04-01T06:04:03;10.10;;;4.07;;
16579;SDS011;8402;51.466;6.806;2023-04-01T06:06:33;9.27;;;3.90;;
16579;SDS011;8402;51.466;6.806;2023-04-01T06:09:10;11.50;;;3.97;;
16579;SDS011;8402;51.466;6.806;2023-04-01T06:11:46;10.73;;;4.00;;
16579;SDS011;8402;51.466;6.806;2023-04-01T06:14:29;8.40;;;3.33;;
16579;SDS011;8402;51.466;6.806;2023-04-01T06:17:12;9.57;;;3.00;;
16579;SDS011;8402;51.466;6.806;2023-04-01T06:19:51;7.03;;;3.40;;
16579;SDS011;8402;51.466;6.806;2023-04-01T06:25:44;6.10;;;3.27;;
16579;SDS011;8402;51.466;6.806;2023-04-01T06:34:40;7.80;;;3.33;;
16579;SDS011;8402;51.466;6.806;2023-04-01T06:37:23;12.90;;;3.50;;
16579;SDS011;8402;51.466;6.806;2023-04-01T06:43:14;10.40;;;3.20;;
16579;SDS011;8402;51.466;6.806;2023-04-01T06:45:50;5.30;;;2.87;;
16579;SDS011;8402;51.466;6.806;2023-04-01T06:48:32;6.23;;;2.90;;
16579;SDS011;8402;51.466;6.806;2023-04-01T06:51:12;4.10;;;2.60;;
16579;SDS011;8402;51.466;6.806;2023-04-01T06:53:53;4.37;;;2.70;;
16579;SDS011;8402;51.466;6.806;2023-04-01T06:56:32;7.73;;;2.93;;
16579;SDS011;8402;51.466;6.806;2023-04-01T06:59:10;4.60;;;2.57;;
16579;SDS011;8402;51.466;6.806;2023-04-01T07:01:45;4.93;;;2.60;;
16579;SDS011;8402;51.466;6.806;2023-04-01T07:04:19;4.27;;;2.50;;
16579;SDS011;8402;51.466;6.806;2023-04-01T07:06:52;5.20;;;2.47;;
16579;SDS011;8402;51.466;6.806;2023-04-01T07:09:26;3.43;;;2.30;;
16579;SDS011;8402;51.466;6.806;2023-04-01T07:12:01;4.67;;;2.73;;
16579;SDS011;8402;51.466;6.806;2023-04-01T07:14:38;4.83;;;2.33;;
16579;SDS011;8402;51.466;6.806;2023-04-01T07:17:12;3.57;;;2.27;;
16579;SDS011;8402;51.466;6.806;2023-04-01T07:19:50;3.10;;;2.20;;
16579;SDS011;8402;51.466;6.806;2023-04-01T07:22:26;4.43;;;2.60;;
16579;SDS011;8402;51.466;6.806;2023-04-01T07:25:03;5.60;;;2.23;;
16579;SDS011;8402;51.466;6.806;2023-04-01T07:27:40;3.47;;;2.30;;
16579;SDS011;8402;51.466;6.806;2023-04-01T07:30:16;4.53;;;2.63;;
16579;SDS011;8402;51.466;6.806;2023-04-01T07:32:48;3.67;;;2.50;;
16579;SDS011;8402;51.466;6.806;2023-04-01T07:35:24;3.93;;;2.77;;
16579;SDS011;8402;51.466;6.806;2023-04-01T07:38:06;4.07;;;2.80;;
16579;SDS011;8402;51.466;6.806;2023-04-01T07:40:46;4.63;;;2.47;;
16579;SDS011;8402;51.466;6.806;2023-04-01T07:46:19;3.27;;;2.53;;
16579;SDS011;8402;51.466;6.806;2023-04-01T07:49:03;4.70;;;2.50;;
16579;SDS011;8402;51.466;6.806;2023-04-01T07:51:38;3.83;;;2.60;;
16579;SDS011;8402;51.466;6.806;2023-04-01T07:54:19;3.50;;;2.40;;
16579;SDS011;8402;51.466;6.806;2023-04-01T07:56:57;3.83;;;2.70;;
16579;SDS011;8402;51.466;6.806;2023-04-01T07:59:38;3.83;;;2.70;;
16579;SDS011;8402;51.466;6.806;2023-04-01T08:02:24;5.63;;;3.07;;
16579;SDS011;8402;51.466;6.806;2023-04-01T08:05:06;5.23;;;3.27;;
16579;SDS011;8402;51.466;6.806;2023-04-01T08:07:49;6.70;;;3.00;;
16579;SDS011;8402;51.466;6.806;2023-04-01T08:10:31;5.37;;;3.30;;
16579;SDS011;8402;51.466;6.806;2023-04-01T08:13:12;6.40;;;3.53;;
16579;SDS011;8402;51.466;6.806;2023-04-01T08:15:52;7.90;;;3.53;;
16579;SDS011;8402;51.466;6.806;2023-04-01T08:18:31;5.37;;;3.53;;
16579;SDS011;8402;51.466;6.806;2023-04-01T08:21:10;5.60;;;3.27;;
16579;SDS011;8402;51.466;6.806;2023-04-01T08:23:44;5.47;;;3.30;;
16579;SDS011;8402;51.466;6.806;2023-04-01T08:26:18;6.73;;;3.47;;
16579;SDS011;8402;51.466;6.806;2023-04-01T08:28:59;6.53;;;2.90;;
16579;SDS011;8402;51.466;6.806;2023-04-01T08:31:33;4.87;;;2.97;;
16579;SDS011;8402;51.466;6.806;2023-04-01T08:34:12;7.03;;;2.80;;
16579;SDS011;8402;51.466;6.806;2023-04-01T08:36:49;4.90;;;3.07;;
16579;SDS011;8402;51.466;6.806;2023-04-01T08:39:23;7.93;;;3.30;;
16579;SDS011;8402;51.466;6.806;2023-04-01T08:42:11;5.37;;;3.23;;
16579;SDS011;8402;51.466;6.806;2023-04-01T08:45:10;5.37;;;2.90;;
16579;SDS011;8402;51.466;6.806;2023-04-01T08:47:54;6.43;;;2.90;;
16579;SDS011;8402;51.466;6.806;2023-04-01T08:50:56;6.50;;;3.27;;
16579;SDS011;8402;51.466;6.806;2023-04-01T08:53:53;5.20;;;2.63;;
16579;SDS011;8402;51.466;6.806;2023-04-01T08:56:40;4.97;;;3.07;;
16579;SDS011;8402;51.466;6.806;2023-04-01T08:59:21;5.20;;;3.20;;
16579;SDS011;8402;51.466;6.806;2023-04-01T09:05:26;5.87;;;3.23;;
16579;SDS011;8402;51.466;6.806;2023-04-01T09:08:24;7.73;;;3.47;;
16579;SDS011;8402;51.466;6.806;2023-04-01T09:11:08;6.77;;;3.33;;
16579;SDS011;8402;51.466;6.806;2023-04-01T09:13:54;5.57;;;3.47;;
16579;SDS011;8402;51.466;6.806;2023-04-01T09:17:01;4.97;;;3.10;;
16579;SDS011;8402;51.466;6.806;2023-04-01T09:19:46;7.30;;;4.00;;
16579;SDS011;8402;51.466;6.806;2023-04-01T09:22:35;6.83;;;4.17;;
16579;SDS011;8402;51.466;6.806;2023-04-01T09:25:26;7.37;;;4.10;;
16579;SDS011;8402;51.466;6.806;2023-04-01T09:28:09;8.37;;;4.50;;
16579;SDS011;8402;51.466;6.806;2023-04-01T09:33:43;6.97;;;4.00;;
16579;SDS011;8402;51.466;6.806;2023-04-01T09:36:38;7.60;;;4.30;;
16579;SDS011;8402;51.466;6.806;2023-04-01T09:42:14;7.97;;;4.40;;
16579;SDS011;8402;51.466;6.806;2023-04-01T09:44:58;9.37;;;4.73;;
16579;SDS011;8402;51.466;6.806;2023-04-01T09:47:35;8.33;;;4.67;;
16579;SDS011;8402;51.466;6.806;2023-04-01T09:50:27;8.30;;;4.93;;
16579;SDS011;8402;51.466;6.806;2023-04-01T09:53:12;12.83;;;4.67;;
16579;SDS011;8402;51.466;6.806;2023-04-01T09:55:57;7.53;;;4.73;;
16579;SDS011;8402;51.466;6.806;2023-04-01T10:01:59;8.10;;;5.07;;
16579;SDS011;8402;51.466;6.806;2023-04-01T10:04:52;9.63;;;5.27;;
16579;SDS011;8402;51.466;6.806;2023-04-01T10:20:19;8.53;;;5.23;;
16579;SDS011;8402;51.466;6.806;2023-04-01T10:26:27;10.20;;;5.17;;
16579;SDS011;8402;51.466;6.806;2023-04-01T10:29:16;8.67;;;4.80;;
16579;SDS011;8402;51.466;6.806;2023-04-01T10:35:29;9.43;;;5.80;;
16579;SDS011;8402;51.466;6.806;2023-04-01T10:38:30;10.87;;;5.80;;
16579;SDS011;8402;51.466;6.806;2023-04-01T10:44:27;9.27;;;4.30;;
16579;SDS011;8402;51.466;6.806;2023-04-01T10:47:26;9.10;;;5.73;;
16579;SDS011;8402;51.466;6.806;2023-04-01T10:50:20;11.63;;;5.47;;
16579;SDS011;8402;51.466;6.806;2023-04-01T10:53:03;7.87;;;4.67;;
16579;SDS011;8402;51.466;6.806;2023-04-01T10:56:06;13.03;;;6.13;;
16579;SDS011;8402;51.466;6.806;2023-04-01T11:17:25;10.87;;;6.17;;
16579;SDS011;8402;51.466;6.806;2023-04-01T11:23:16;10.47;;;6.60;;
16579;SDS011;8402;51.466;6.806;2023-04-01T11:25:56;9.87;;;6.17;;
16579;SDS011;8402;51.466;6.806;2023-04-01T11:28:47;11.20;;;6.43;;
16579;SDS011;8402;51.466;6.806;2023-04-01T11:31:38;13.37;;;6.50;;
16579;SDS011;8402;51.466;6.806;2023-04-01T11:34:27;10.93;;;6.00;;
16579;SDS011;8402;51.466;6.806;2023-04-01T11:37:21;9.63;;;5.77;;
16579;SDS011;8402;51.466;6.806;2023-04-01T11:40:05;11.53;;;6.17;;
16579;SDS011;8402;51.466;6.806;2023-04-01T11:42:46;12.77;;;6.27;;
16579;SDS011;8402;51.466;6.806;2023-04-01T11:45:25;9.10;;;5.63;;
16579;SDS011;8402;51.466;6.806;2023-04-01T11:48:11;12.27;;;6.80;;
16579;SDS011;8402;51.466;6.806;2023-04-01T11:51:07;10.20;;;6.13;;
16579;SDS011;8402;51.466;6.806;2023-04-01T11:53:52;11.93;;;6.23;;
16579;SDS011;8402;51.466;6.806;2023-04-01T11:56:33;14.17;;;6.70;;
16579;SDS011;8402;51.466;6.806;2023-04-01T12:02:15;18.77;;;7.50;;
16579;SDS011;8402;51.466;6.806;2023-04-01T12:04:58;12.47;;;5.57;;
16579;SDS011;8402;51.466;6.806;2023-04-01T12:07:49;10.30;;;6.60;;
16579;SDS011;8402;51.466;6.806;2023-04-01T12:10:26;9.63;;;6.70;;
16579;SDS011;8402;51.466;6.806;2023-04-01T12:13:02;11.87;;;7.20;;
16579;SDS011;8402;51.466;6.806;2023-04-01T12:15:48;11.80;;;7.00;;
16579;SDS011;8402;51.466;6.806;2023-04-01T12:18:29;11.47;;;6.73;;
16579;SDS011;8402;51.466;6.806;2023-04-01T12:21:11;10.23;;;5.23;;
16579;SDS011;8402;51.466;6.806;2023-04-01T12:24:02;12.90;;;6.80;;
16579;SDS011;8402;51.466;6.806;2023-04-01T12:29:49;10.13;;;5.73;;
16579;SDS011;8402;51.466;6.806;2023-04-01T12:32:33;8.10;;;5.53;;
16579;SDS011;8402;51.466;6.806;2023-04-01T12:35:21;9.43;;;5.90;;
16579;SDS011;8402;51.466;6.806;2023-04-01T12:37:58;10.57;;;5.80;;
16579;SDS011;8402;51.466;6.806;2023-04-01T12:40:54;9.27;;;5.67;;
16579;SDS011;8402;51.466;6.806;2023-04-01T12:43:49;10.57;;;5.90;;
16579;SDS011;8402;51.466;6.806;2023-04-01T12:46:34;13.60;;;6.80;;
16579;SDS011;8402;51.466;6.806;2023-04-01T12:52:41;11.37;;;5.73;;
16579;SDS011;8402;51.466;6.806;2023-04-01T12:55:34;9.80;;;5.80;;
16579;SDS011;8402;51.466;6.806;2023-04-01T13:07:37;9.33;;;6.43;;
16579;SDS011;8402;51.466;6.806;2023-04-01T13:16:26;10.27;;;5.90;;
16579;SDS011;8402;51.466;6.806;2023-04-01T13:19:00;10.60;;;6.03;;
16579;SDS011;8402;51.466;6.806;2023-04-01T13:21:42;10.97;;;5.90;;
16579;SDS011;8402;51.466;6.806;2023-04-01T13:24:24;9.93;;;5.50;;
16579;SDS011;8402;51.466;6.806;2023-04-01T13:27:07;9.17;;;5.87;;
16579;SDS011;8402;51.466;6.806;2023-04-01T13:29:47;8.03;;;4.97;;
16579;SDS011;8402;51.466;6.806;2023-04-01T13:32:30;11.10;;;5.57;;
16579;SDS011;8402;51.466;6.806;2023-04-01T13:35:16;10.50;;;5.27;;
16579;SDS011;8402;51.466;6.806;2023-04-01T13:37:55;11.97;;;5.33;;
16579;SDS011;8402;51.466;6.806;2023-04-01T13:40:39;10.17;;;5.50;;
16579;SDS011;8402;51.466;6.806;2023-04-01T13:43:29;10.10;;;5.13;;
16579;SDS011;8402;51.466;6.806;2023-04-01T13:46:12;9.20;;;5.13;;
16579;SDS011;8402;51.466;6.806;2023-04-01T13:49:02;11.63;;;5.80;;
16579;SDS011;8402;51.466;6.806;2023-04-01T13:51:57;9.43;;;5.43;;
16579;SDS011;8402;51.466;6.806;2023-04-01T13:54:53;8.80;;;5.07;;
16579;SDS011;8402;51.466;6.806;2023-04-01T13:57:51;9.80;;;5.30;;
16579;SDS011;8402;51.466;6.806;2023-04-01T14:00:35;11.00;;;5.13;;
16579;SDS011;8402;51.466;6.806;2023-04-01T14:06:19;9.47;;;5.27;;
16579;SDS011;8402;51.466;6.806;2023-04-01T14:12:02;8.53;;;5.23;;
16579;SDS011;8402;51.466;6.806;2023-04-01T14:14:43;12.00;;;6.07;;
16579;SDS011;8402;51.466;6.806;2023-04-01T14:17:29;11.33;;;6.17;;
16579;SDS011;8402;51.466;6.806;2023-04-01T14:20:20;8.90;;;5.10;;
16579;SDS011;8402;51.466;6.806;2023-04-01T14:23:12;12.77;;;6.13;;
16579;SDS011;8402;51.466;6.806;2023-04-01T14:25:54;13.20;;;5.67;;
16579;SDS011;8402;51.466;6.806;2023-04-01T14:28:40;9.53;;;5.07;;
16579;SDS011;8402;51.466;6.806;2023-04-01T14:31:27;8.27;;;4.87;;
16579;SDS011;8402;51.466;6.806;2023-04-01T14:34:16;9.80;;;5.00;;
16579;SDS011;8402;51.466;6.806;2023-04-01T14:37:07;8.07;;;4.93;;
16579;SDS011;8402;51.466;6.806;2023-04-01T14:39:54;9.33;;;5.23;;
16579;SDS011;8402;51.466;6.806;2023-04-01T14:42:49;9.93;;;4.60;;
16579;SDS011;8402;51.466;6.806;2023-04-01T14:45:46;7.37;;;4.40;;
16579;SDS011;8402;51.466;6.806;2023-04-01T14:48:33;9.23;;;4.73;;
16579;SDS011;8402;51.466;6.806;2023-04-01T14:51:12;8.73;;;4.70;;
16579;SDS011;8402;51.466;6.806;2023-04-01T14:53:51;8.00;;;4.70;;
16579;SDS011;8402;51.466;6.806;2023-04-01T14:56:38;6.97;;;4.77;;
16579;SDS011;8402;51.466;6.806;2023-04-01T14:59:10;8.53;;;4.67;;
16579;SDS011;8402;51.466;6.806;2023-04-01T15:01:47;7.73;;;5.10;;
16579;SDS011;8402;51.466;6.806;2023-04-01T15:04:37;10.87;;;4.70;;
16579;SDS011;8402;51.466;6.806;2023-04-01T15:10:21;7.73;;;5.00;;
16579;SDS011;8402;51.466;6.806;2023-04-01T15:13:09;11.70;;;5.57;;
16579;SDS011;8402;51.466;6.806;2023-04-01T15:15:47;8.53;;;5.17;;
16579;SDS011;8402;51.466;6.806;2023-04-01T15:18:33;8.50;;;4.53;;
16579;SDS011;8402;51.466;6.806;2023-04-01T15:21:18;7.03;;;4.37;;
16579;SDS011;8402;51.466;6.806;2023-04-01T15:23:57;10.53;;;4.60;;
16579;SDS011;8402;51.466;6.806;2023-04-01T15:32:56;8.53;;;4.93;;
16579;SDS011;8402;51.466;6.806;2023-04-01T15:35:38;8.13;;;3.87;;
16579;SDS011;8402;51.466;6.806;2023-04-01T15:38:16;7.23;;;4.30;;
16579;SDS011;8402;51.466;6.806;2023-04-01T15:40:58;6.93;;;4.27;;
16579;SDS011;8402;51.466;6.806;2023-04-01T15:43:36;7.07;;;3.77;;
16579;SDS011;8402;51.466;6.806;2023-04-01T15:49:16;6.10;;;2.90;;
16579;SDS011;8402;51.466;6.806;2023-04-01T15:57:51;8.33;;;4.70;;
16579;SDS011;8402;51.466;6.806;2023-04-01T16:00:32;7.77;;;4.40;;
16579;SDS011;8402;51.466;6.806;2023-04-01T16:03:22;7.13;;;3.90;;
16579;SDS011;8402;51.466;6.806;2023-04-01T16:06:13;7.90;;;4.43;;
16579;SDS011;8402;51.466;6.806;2023-04-01T16:08:55;8.53;;;4.27;;
16579;SDS011;8402;51.466;6.806;2023-04-01T16:11:35;8.13;;;5.00;;
16579;SDS011;8402;51.466;6.806;2023-04-01T16:14:17;11.13;;;6.77;;
16579;SDS011;8402;51.466;6.806;2023-04-01T16:17:00;12.00;;;6.23;;
16579;SDS011;8402;51.466;6.806;2023-04-01T16:19:43;12.80;;;6.83;;
16579;SDS011;8402;51.466;6.806;2023-04-01T16:22:23;12.87;;;6.27;;
16579;SDS011;8402;51.466;6.806;2023-04-01T16:25:01;9.07;;;5.20;;
16579;SDS011;8402;51.466;6.806;2023-04-01T16:27:49;8.87;;;5.03;;
16579;SDS011;8402;51.466;6.806;2023-04-01T16:30:25;8.13;;;4.67;;
16579;SDS011;8402;51.466;6.806;2023-04-01T16:33:04;11.17;;;5.53;;
16579;SDS011;8402;51.466;6.806;2023-04-01T16:35:46;11.60;;;5.80;;
16579;SDS011;8402;51.466;6.806;2023-04-01T16:38:24;12.10;;;5.87;;
16579;SDS011;8402;51.466;6.806;2023-04-01T16:41:07;7.90;;;4.87;;
16579;SDS011;8402;51.466;6.806;2023-04-01T16:43:44;10.17;;;4.60;;
16579;SDS011;8402;51.466;6.806;2023-04-01T16:46:23;8.27;;;5.20;;
16579;SDS011;8402;51.466;6.806;2023-04-01T16:48:59;8.53;;;4.53;;
16579;SDS011;8402;51.466;6.806;2023-04-01T16:51:36;7.07;;;4.53;;
16579;SDS011;8402;51.466;6.806;2023-04-01T16:54:16;8.97;;;4.73;;
16579;SDS011;8402;51.466;6.806;2023-04-01T16:57:02;8.90;;;4.67;;
16579;SDS011;8402;51.466;6.806;2023-04-01T16:59:44;7.77;;;4.73;;
16579;SDS011;8402;51.466;6.806;2023-04-01T17:02:17;7.70;;;4.50;;
16579;SDS011;8402;51.466;6.806;2023-04-01T17:04:57;6.37;;;4.13;;
16579;SDS011;8402;51.466;6.806;2023-04-01T17:07:35;8.43;;;4.60;;
16579;SDS011;8402;51.466;6.806;2023-04-01T17:10:24;7.87;;;4.80;;
16579;SDS011;8402;51.466;6.806;2023-04-01T17:13:06;8.60;;;4.90;;
16579;SDS011;8402;51.466;6.806;2023-04-01T17:15:50;8.20;;;5.00;;
16579;SDS011;8402;51.466;6.806;2023-04-01T17:18:32;8.27;;;4.60;;
16579;SDS011;8402;51.466;6.806;2023-04-01T17:21:10;12.47;;;5.67;;
16579;SDS011;8402;51.466;6.806;2023-04-01T17:23:50;14.07;;;5.07;;
16579;SDS011;8402;51.466;6.806;2023-04-01T17:26:25;8.43;;;4.83;;
16579;SDS011;8402;51.466;6.806;2023-04-01T17:29:03;10.63;;;5.40;;
16579;SDS011;8402;51.466;6.806;2023-04-01T17:31:49;9.83;;;5.43;;
16579;SDS011;8402;51.466;6.806;2023-04-01T17:34:35;10.67;;;6.13;;
16579;SDS011;8402;51.466;6.806;2023-04-01T17:37:24;10.33;;;5.50;;
16579;SDS011;8402;51.466;6.806;2023-04-01T17:40:15;12.70;;;6.33;;
16579;SDS011;8402;51.466;6.806;2023-04-01T17:42:55;10.77;;;5.80;;
16579;SDS011;8402;51.466;6.806;2023-04-01T17:45:34;10.37;;;5.53;;
16579;SDS011;8402;51.466;6.806;2023-04-01T17:48:16;10.40;;;5.63;;
16579;SDS011;8402;51.466;6.806;2023-04-01T17:50:53;12.53;;;6.80;;
16579;SDS011;8402;51.466;6.806;2023-04-01T17:53:42;11.27;;;6.40;;
16579;SDS011;8402;51.466;6.806;2023-04-01T17:56:25;12.63;;;6.90;;
16579;SDS011;8402;51.466;6.806;2023-04-01T17:59:16;14.37;;;6.97;;
16579;SDS011;8402;51.466;6.806;2023-04-01T18:01:58;11.67;;;6.50;;
16579;SDS011;8402;51.466;6.806;2023-04-01T18:04:40;11.73;;;6.93;;
16579;SDS011;8402;51.466;6.806;2023-04-01T18:07:26;12.80;;;6.80;;
16579;SDS011;8402;51.466;6.806;2023-04-01T18:10:17;11.87;;;6.97;;
16579;SDS011;8402;51.466;6.806;2023-04-01T18:16:02;11.43;;;7.40;;
16579;SDS011;8402;51.466;6.806;2023-04-01T18:18:46;12.33;;;7.07;;